Time;durP1;ratioP1;P1;durP2;ratioP2;P2;SDS_P1;SDS_P2;PMS_P1;PMS_P2;Temp;Humidity;BMP_temperature;BMP_pressure;BME280_temperature;BME280_humidity;BME280_pressure;Samples;Min_cycle;Max_cycle;Signal;HPM_P1;HPM_P2
2021/11/13 00:01:03;;;;;;;46.28;15.27;;;;;;;;;;5071896;28;20477;-54
2021/11/13 00:03:29;;;;;;;51.22;18.27;;;;;;;;;;5073367;28;20048;-54
2021/11/13 00:05:56;;;;;;;49.53;15.13;;;;;;;;;;5071519;28;20053;-54
2021/11/13 00:08:22;;;;;;;49.50;17.38;;;;;;;;;;5071488;28;20106;-54
2021/11/13 00:10:52;;;;;;;46.15;18.05;;;;;;;;;;5071437;28;20055;-54
2021/11/13 00:13:20;;;;;;;44.70;16.55;;;;;;;;;;5071553;28;20135;-54
2021/11/13 00:15:47;;;;;;;52.10;17.73;;;;;;;;;;5071764;28;20064;-54
2021/11/13 00:18:13;;;;;;;54.65;17.85;;;;;;;;;;5072809;28;20123;-54
2021/11/13 00:20:39;;;;;;;55.65;17.02;;;;;;;;;;5071377;28;20045;-54
2021/11/13 00:23:06;;;;;;;63.28;18.13;;;;;;;;;;5071298;28;20102;-54
2021/11/13 00:25:32;;;;;;;57.78;18.42;;;;;;;;;;5071107;28;20094;-54
2021/11/13 00:27:59;;;;;;;52.58;16.23;;;;;;;;;;5070531;28;20040;-54
2021/11/13 00:30:25;;;;;;;48.42;16.85;;;;;;;;;;5073159;28;20066;-54
2021/11/13 00:32:51;;;;;;;52.30;17.20;;;;;;;;;;5070904;28;20044;-56
2021/11/13 00:35:18;;;;;;;44.58;15.52;;;;;;;;;;5071189;28;20067;-54
2021/11/13 00:37:44;;;;;;;46.92;16.55;;;;;;;;;;5070982;28;20068;-54
2021/11/13 00:40:11;;;;;;;51.60;15.70;;;;;;;;;;5071025;28;20043;-54
2021/11/13 00:42:38;;;;;;;49.58;16.58;;;;;;;;;;5072432;28;20158;-54
2021/11/13 00:45:04;;;;;;;46.05;15.98;;;;;;;;;;5071597;28;20059;-54
2021/11/13 00:47:33;;;;;;;44.40;14.73;;;;;;;;;;5070811;28;20043;-54
2021/11/13 00:49:59;;;;;;;51.03;14.55;;;;;;;;;;5070879;28;20044;-54
2021/11/13 00:52:26;;;;;;;41.45;16.23;;;;;;;;;;5071039;28;20118;-54
2021/11/13 00:54:52;;;;;;;56.00;16.10;;;;;;;;;;5070811;28;20514;-54
2021/11/13 00:57:18;;;;;;;48.38;15.93;;;;;;;;;;5072860;28;20047;-54
2021/11/13 00:59:45;;;;;;;35.80;13.75;;;;;;;;;;5070826;28;20068;-54
2021/11/13 01:02:11;;;;;;;48.65;14.38;;;;;;;;;;5070600;28;20090;-54
2021/11/13 01:04:37;;;;;;;45.30;14.10;;;;;;;;;;5070851;28;20040;-54
2021/11/13 01:07:04;;;;;;;33.83;12.05;;;;;;;;;;5070837;28;20385;-54
2021/11/13 01:09:30;;;;;;;39.33;13.55;;;;;;;;;;5072816;28;20048;-54
2021/11/13 01:11:58;;;;;;;49.72;15.70;;;;;;;;;;5053324;28;20052;-54
2021/11/13 01:14:24;;;;;;;47.15;14.68;;;;;;;;;;5070639;28;20071;-54
2021/11/13 01:16:51;;;;;;;44.65;15.13;;;;;;;;;;5070473;28;20052;-54
2021/11/13 01:19:17;;;;;;;43.00;15.68;;;;;;;;;;5070683;28;20044;-54
2021/11/13 01:21:44;;;;;;;47.00;17.33;;;;;;;;;;5071527;28;20076;-54
2021/11/13 01:24:10;;;;;;;51.92;15.55;;;;;;;;;;5072006;28;20127;-54
2021/11/13 01:26:37;;;;;;;52.83;16.60;;;;;;;;;;5070639;28;20040;-54
2021/11/13 01:29:04;;;;;;;43.20;13.32;;;;;;;;;;5070623;28;20044;-54
2021/11/13 01:31:31;;;;;;;64.40;15.68;;;;;;;;;;5070434;28;20115;-54
2021/11/13 01:33:58;;;;;;;50.63;16.55;;;;;;;;;;5070588;28;20044;-54
2021/11/13 01:36:25;;;;;;;45.17;14.63;;;;;;;;;;5072547;28;20052;-54
2021/11/13 01:38:54;;;;;;;54.72;16.02;;;;;;;;;;5073042;28;20045;-54
2021/11/13 01:41:20;;;;;;;51.53;17.10;;;;;;;;;;5074287;28;20045;-54
2021/11/13 01:43:47;;;;;;;52.30;14.80;;;;;;;;;;5074131;28;20052;-54
2021/11/13 01:46:13;;;;;;;52.78;15.55;;;;;;;;;;5074215;28;20052;-54
2021/11/13 01:48:40;;;;;;;42.83;14.23;;;;;;;;;;5075730;28;20414;-54
2021/11/13 01:51:17;;;;;;;42.70;13.13;;;;;;;;;;5074904;28;20083;-54
2021/11/13 01:53:44;;;;;;;51.75;15.80;;;;;;;;;;5074017;28;20048;-54
2021/11/13 01:56:17;;;;;;;49.33;15.00;;;;;;;;;;5073917;28;20550;-54
2021/11/13 01:58:43;;;;;;;61.80;15.95;;;;;;;;;;5073913;28;20045;-54
2021/11/13 02:01:11;;;;;;;47.15;15.40;;;;;;;;;;5074096;28;20036;-54
2021/11/13 02:03:38;;;;;;;52.17;15.20;;;;;;;;;;5075335;28;20067;-54
2021/11/13 02:06:04;;;;;;;69.78;15.95;;;;;;;;;;5074481;28;20115;-54
2021/11/13 02:08:31;;;;;;;52.45;15.27;;;;;;;;;;5073923;28;20398;-54
2021/11/13 02:10:57;;;;;;;57.53;16.85;;;;;;;;;;5073830;28;20072;-54
2021/11/13 02:13:23;;;;;;;49.67;14.95;;;;;;;;;;5073525;28;20052;-54
2021/11/13 02:15:50;;;;;;;45.80;15.93;;;;;;;;;;5073881;28;20106;-54
2021/11/13 02:18:16;;;;;;;47.50;13.82;;;;;;;;;;5075615;28;20067;-54
2021/11/13 02:20:43;;;;;;;57.22;15.65;;;;;;;;;;5073607;28;20099;-54
2021/11/13 02:23:15;;;;;;;58.38;16.33;;;;;;;;;;5073687;28;20817;-54
2021/11/13 02:25:41;;;;;;;56.05;14.95;;;;;;;;;;5073432;28;20055;-54
2021/11/13 02:28:08;;;;;;;59.60;17.67;;;;;;;;;;5073461;28;20118;-54
2021/11/13 02:30:35;;;;;;;63.30;17.42;;;;;;;;;;5075417;28;20492;-54
2021/11/13 02:33:01;;;;;;;78.57;18.17;;;;;;;;;;5073805;28;20072;-54
2021/11/13 02:35:31;;;;;;;46.70;13.02;;;;;;;;;;5073329;28;20404;-54
2021/11/13 02:37:58;;;;;;;64.47;16.63;;;;;;;;;;5073426;28;20071;-54
2021/11/13 02:40:25;;;;;;;68.97;16.80;;;;;;;;;;5073190;28;20077;-54
2021/11/13 02:42:51;;;;;;;52.42;14.90;;;;;;;;;;5073070;28;20134;-54
2021/11/13 02:45:18;;;;;;;62.60;15.65;;;;;;;;;;5075101;28;20075;-54
2021/11/13 02:47:47;;;;;;;50.75;16.10;;;;;;;;;;5073087;28;20049;-54
2021/11/13 02:50:15;;;;;;;48.83;15.57;;;;;;;;;;5072049;28;20506;-54
2021/11/13 02:52:47;;;;;;;37.28;13.50;;;;;;;;;;5073076;28;20048;-54
2021/11/13 02:55:14;;;;;;;47.92;14.57;;;;;;;;;;5073123;28;20060;-54
2021/11/13 02:57:41;;;;;;;35.47;12.63;;;;;;;;;;5074228;28;20415;-54
2021/11/13 03:00:08;;;;;;;38.58;14.23;;;;;;;;;;5073928;28;20079;-54
2021/11/13 03:02:36;;;;;;;34.40;11.48;;;;;;;;;;5072859;28;20043;-54
2021/11/13 03:05:02;;;;;;;25.35;8.20;;;;;;;;;;5072741;28;20060;-54
2021/11/13 03:07:29;;;;;;;33.17;12.75;;;;;;;;;;5072799;28;20036;-54
2021/11/13 03:09:59;;;;;;;17.77;6.55;;;;;;;;;;5072982;28;20036;-54
2021/11/13 03:12:25;;;;;;;38.00;12.70;;;;;;;;;;5056790;28;20442;-54
2021/11/13 03:14:51;;;;;;;37.72;13.50;;;;;;;;;;5071841;28;20135;-54
2021/11/13 03:17:18;;;;;;;43.05;16.10;;;;;;;;;;5072024;28;20500;-54
2021/11/13 03:19:44;;;;;;;34.90;13.90;;;;;;;;;;5071769;28;20049;-54
2021/11/13 03:22:10;;;;;;;35.15;12.63;;;;;;;;;;5072415;28;20040;-54
2021/11/13 03:24:39;;;;;;;37.58;14.13;;;;;;;;;;5055506;28;20106;-54
2021/11/13 03:27:06;;;;;;;42.70;14.32;;;;;;;;;;5055362;28;20040;-54
2021/11/13 03:29:34;;;;;;;38.47;14.43;;;;;;;;;;5071884;28;20145;-54
2021/11/13 03:32:03;;;;;;;40.20;13.40;;;;;;;;;;5071584;28;20510;-54
2021/11/13 03:34:29;;;;;;;52.97;15.18;;;;;;;;;;5071793;28;20495;-54
2021/11/13 03:36:55;;;;;;;53.28;15.00;;;;;;;;;;5072047;28;20059;-54
2021/11/13 03:39:21;;;;;;;45.85;14.02;;;;;;;;;;5074060;28;20087;-54
2021/11/13 03:41:48;;;;;;;45.75;15.60;;;;;;;;;;5071640;28;20140;-54
2021/11/13 03:44:14;;;;;;;42.78;13.82;;;;;;;;;;5071869;28;20093;-54
2021/11/13 03:46:41;;;;;;;46.13;14.80;;;;;;;;;;5072056;28;20079;-54
2021/11/13 03:49:07;;;;;;;50.40;15.50;;;;;;;;;;5072158;28;20052;-54
2021/11/13 03:51:33;;;;;;;44.78;15.77;;;;;;;;;;5074048;28;20519;-54
2021/11/13 03:53:59;;;;;;;34.30;12.35;;;;;;;;;;5069023;28;20500;-54
2021/11/13 03:56:26;;;;;;;53.17;14.40;;;;;;;;;;5071440;28;20415;-54
2021/11/13 03:58:52;;;;;;;43.15;14.20;;;;;;;;;;5071731;28;20051;-54
2021/11/13 04:01:19;;;;;;;34.88;13.60;;;;;;;;;;5071662;28;20044;-54
2021/11/13 04:03:45;;;;;;;32.05;13.93;;;;;;;;;;5072429;28;20040;-54
2021/11/13 04:06:11;;;;;;;34.80;12.70;;;;;;;;;;5072801;28;20147;-54
2021/11/13 04:08:37;;;;;;;46.10;14.35;;;;;;;;;;5071615;28;20064;-54
2021/11/13 04:11:04;;;;;;;40.03;14.40;;;;;;;;;;5071366;28;20446;-54
2021/11/13 04:13:30;;;;;;;38.97;14.60;;;;;;;;;;5071322;28;20044;-54
2021/11/13 04:15:57;;;;;;;37.58;15.02;;;;;;;;;;5071498;28;20502;-54
2021/11/13 04:18:23;;;;;;;43.33;15.38;;;;;;;;;;5073410;28;20515;-54
2021/11/13 04:20:50;;;;;;;42.47;13.68;;;;;;;;;;5071349;28;20040;-54
2021/11/13 04:23:17;;;;;;;39.97;12.35;;;;;;;;;;5071325;28;20075;-54
2021/11/13 04:25:44;;;;;;;42.05;14.40;;;;;;;;;;5071127;28;20036;-54
2021/11/13 04:28:10;;;;;;;37.13;14.60;;;;;;;;;;5071254;28;20060;-54
2021/11/13 04:30:36;;;;;;;49.92;12.60;;;;;;;;;;5073032;28;20151;-54
2021/11/13 04:33:03;;;;;;;42.13;13.60;;;;;;;;;;5070369;28;20059;-54
2021/11/13 04:37:57;;;;;;;48.00;14.25;;;;;;;;;;5070946;28;20497;-54
2021/11/13 04:40:25;;;;;;;47.95;14.82;;;;;;;;;;5070934;28;20472;-54
2021/11/13 04:42:51;;;;;;;45.55;14.45;;;;;;;;;;5071133;28;20066;-54
2021/11/13 04:45:18;;;;;;;44.40;15.02;;;;;;;;;;5073051;28;20056;-54
2021/11/13 04:47:44;;;;;;;50.90;18.33;;;;;;;;;;5053449;28;20063;-54
2021/11/13 04:50:12;;;;;;;51.70;16.95;;;;;;;;;;5070909;28;20050;-54
2021/11/13 04:52:39;;;;;;;51.33;18.00;;;;;;;;;;5070839;28;20089;-54
2021/11/13 04:55:05;;;;;;;50.10;17.33;;;;;;;;;;5071018;28;20048;-54
2021/11/13 04:57:31;;;;;;;43.83;16.50;;;;;;;;;;5072969;28;20074;-54
2021/11/13 04:59:58;;;;;;;50.80;16.52;;;;;;;;;;5070857;28;20503;-54
2021/11/13 05:02:24;;;;;;;45.08;17.70;;;;;;;;;;5070804;28;20071;-54
2021/11/13 05:04:54;;;;;;;47.28;17.40;;;;;;;;;;5070684;28;20546;-54
2021/11/13 05:07:22;;;;;;;41.92;15.85;;;;;;;;;;5070778;28;20076;-54
2021/11/13 05:09:48;;;;;;;39.58;16.52;;;;;;;;;;5071219;28;20048;-54
2021/11/13 05:12:14;;;;;;;41.35;16.20;;;;;;;;;;5072560;28;20048;-54
2021/11/13 05:14:40;;;;;;;49.65;17.35;;;;;;;;;;5074715;28;20045;-54
2021/11/13 05:17:07;;;;;;;38.88;16.50;;;;;;;;;;5074871;28;20475;-54
2021/11/13 05:19:33;;;;;;;42.65;16.00;;;;;;;;;;5074939;28;20040;-54
2021/11/13 05:21:59;;;;;;;41.92;15.80;;;;;;;;;;5074688;28;20079;-54
2021/11/13 05:24:25;;;;;;;43.85;15.32;;;;;;;;;;5076529;28;20050;-54
2021/11/13 05:26:52;;;;;;;49.80;17.58;;;;;;;;;;5074698;28;20123;-54
2021/11/13 05:29:18;;;;;;;47.63;16.48;;;;;;;;;;5074602;28;20504;-54
2021/11/13 05:31:45;;;;;;;49.03;15.50;;;;;;;;;;5074551;28;20102;-54
2021/11/13 05:34:13;;;;;;;50.78;17.13;;;;;;;;;;5074626;28;20043;-54
2021/11/13 05:36:40;;;;;;;41.90;15.23;;;;;;;;;;5075616;28;20040;-54
2021/11/13 05:39:07;;;;;;;52.63;17.17;;;;;;;;;;5075128;28;20044;-54
2021/11/13 05:41:33;;;;;;;53.28;17.42;;;;;;;;;;5074218;28;20423;-54
2021/11/13 05:44:01;;;;;;;49.08;16.77;;;;;;;;;;5074320;28;20044;-54
2021/11/13 05:46:32;;;;;;;42.78;16.02;;;;;;;;;;5074544;28;20036;-54
2021/11/13 05:48:59;;;;;;;47.95;18.08;;;;;;;;;;5074326;28;20059;-54
2021/11/13 05:51:25;;;;;;;50.38;17.17;;;;;;;;;;5075910;28;20546;-54
2021/11/13 05:53:55;;;;;;;54.50;17.23;;;;;;;;;;5074031;28;20549;-54
2021/11/13 05:56:24;;;;;;;36.17;14.35;;;;;;;;;;5074096;28;20128;-54
2021/11/13 05:58:51;;;;;;;41.00;14.85;;;;;;;;;;5074051;28;20053;-54
2021/11/13 06:01:17;;;;;;;44.33;16.65;;;;;;;;;;5074096;28;20081;-54
2021/11/13 06:03:44;;;;;;;56.67;18.20;;;;;;;;;;5074911;28;20055;-54
2021/11/13 06:06:15;;;;;;;47.08;15.50;;;;;;;;;;5075630;28;20412;-54
2021/11/13 06:08:41;;;;;;;49.28;16.63;;;;;;;;;;5073837;28;20051;-54
2021/11/13 06:11:07;;;;;;;42.00;14.82;;;;;;;;;;5073974;28;20051;-54
2021/11/13 06:13:34;;;;;;;51.38;16.27;;;;;;;;;;5073722;28;20136;-54
2021/11/13 06:16:02;;;;;;;52.22;16.40;;;;;;;;;;5073934;28;20126;-54
2021/11/13 06:18:30;;;;;;;56.22;17.75;;;;;;;;;;5075750;28;20402;-54
2021/11/13 06:20:56;;;;;;;52.60;17.58;;;;;;;;;;5073448;28;20044;-54
2021/11/13 06:23:23;;;;;;;51.58;17.30;;;;;;;;;;5073561;28;20083;-54
2021/11/13 06:25:49;;;;;;;42.67;15.52;;;;;;;;;;5073577;28;20047;-54
2021/11/13 06:28:15;;;;;;;44.10;15.35;;;;;;;;;;5073715;28;20088;-54
2021/11/13 06:30:42;;;;;;;45.22;15.93;;;;;;;;;;5074954;28;20474;-54
2021/11/13 06:33:08;;;;;;;45.28;17.02;;;;;;;;;;5074434;28;20488;-54
2021/11/13 06:35:35;;;;;;;53.35;17.52;;;;;;;;;;5073127;28;20040;-54
2021/11/13 06:38:02;;;;;;;40.55;14.98;;;;;;;;;;5073407;28;20089;-54
2021/11/13 06:40:31;;;;;;;45.95;16.67;;;;;;;;;;5073338;28;20052;-54
2021/11/13 06:42:59;;;;;;;60.72;18.55;;;;;;;;;;5073325;28;20052;-55
2021/11/13 06:45:26;;;;;;;49.85;15.50;;;;;;;;;;5075245;28;20048;-54
2021/11/13 06:47:53;;;;;;;41.15;16.80;;;;;;;;;;5073127;28;20078;-54
2021/11/13 06:50:20;;;;;;;49.40;17.83;;;;;;;;;;5072889;28;20487;-54
2021/11/13 06:52:47;;;;;;;37.35;16.25;;;;;;;;;;5073038;28;20047;-54
2021/11/13 06:55:13;;;;;;;46.50;17.75;;;;;;;;;;5073114;28;20051;-54
2021/11/13 06:57:40;;;;;;;48.08;16.25;;;;;;;;;;5074626;28;20048;-54
2021/11/13 07:00:08;;;;;;;50.15;18.42;;;;;;;;;;5073664;28;20119;-54
2021/11/13 07:02:34;;;;;;;49.15;17.85;;;;;;;;;;5072631;28;20036;-54
2021/11/13 07:05:01;;;;;;;45.80;17.17;;;;;;;;;;5072644;28;20037;-54
2021/11/13 07:07:27;;;;;;;50.25;17.88;;;;;;;;;;5072953;28;20109;-54
2021/11/13 07:09:53;;;;;;;42.97;16.70;;;;;;;;;;5072925;28;20048;-54
2021/11/13 07:12:19;;;;;;;38.60;15.75;;;;;;;;;;5074688;28;20518;-54
2021/11/13 07:14:46;;;;;;;48.17;17.77;;;;;;;;;;5072542;28;20044;-54
2021/11/13 07:17:12;;;;;;;36.13;15.95;;;;;;;;;;5072641;28;20045;-54
2021/11/13 07:19:39;;;;;;;44.25;15.77;;;;;;;;;;5072277;28;20060;-54
2021/11/13 07:22:05;;;;;;;46.95;17.05;;;;;;;;;;5072674;28;20420;-54
2021/11/13 07:24:31;;;;;;;49.25;17.60;;;;;;;;;;5070128;28;20056;-54
2021/11/13 07:26:58;;;;;;;42.10;17.50;;;;;;;;;;5072276;28;20088;-54
2021/11/13 07:29:27;;;;;;;51.55;16.00;;;;;;;;;;5072466;28;20040;-54
2021/11/13 07:31:54;;;;;;;53.88;17.75;;;;;;;;;;5072009;28;20044;-54
2021/11/13 07:34:20;;;;;;;43.45;16.75;;;;;;;;;;5072436;28;20126;-54
2021/11/13 07:36:47;;;;;;;42.78;18.08;;;;;;;;;;5072303;28;20044;-54
2021/11/13 07:39:13;;;;;;;51.60;17.85;;;;;;;;;;5073759;28;20044;-54
2021/11/13 07:41:40;;;;;;;53.67;18.88;;;;;;;;;;5071910;28;20056;-54
2021/11/13 07:44:07;;;;;;;52.05;18.60;;;;;;;;;;5071936;28;20048;-54
2021/11/13 07:46:34;;;;;;;46.10;18.00;;;;;;;;;;5071897;28;20044;-54
2021/11/13 07:49:01;;;;;;;42.90;16.50;;;;;;;;;;5072082;28;20052;-54
2021/11/13 07:51:27;;;;;;;48.60;19.25;;;;;;;;;;5073775;28;20044;-54
2021/11/13 07:53:53;;;;;;;44.05;18.48;;;;;;;;;;5071401;28;20052;-54
2021/11/13 07:56:20;;;;;;;46.20;18.75;;;;;;;;;;5071593;28;20504;-54
2021/11/13 07:58:46;;;;;;;51.78;17.88;;;;;;;;;;5071825;28;20526;-54
2021/11/13 08:01:12;;;;;;;49.60;19.30;;;;;;;;;;5071587;28;20044;-54
2021/11/13 08:03:39;;;;;;;48.63;20.05;;;;;;;;;;5072971;28;20083;-54
2021/11/13 08:06:05;;;;;;;57.95;18.27;;;;;;;;;;5072291;28;20051;-54
2021/11/13 08:08:31;;;;;;;51.13;19.73;;;;;;;;;;5071617;28;20051;-54
2021/11/13 08:10:58;;;;;;;51.17;19.83;;;;;;;;;;5071547;28;20438;-54
2021/11/13 08:13:24;;;;;;;47.03;19.85;;;;;;;;;;5071587;28;20040;-54
2021/11/13 08:15:51;;;;;;;36.03;13.55;;;;;;;;;;5071274;28;20045;-54
2021/11/13 08:18:18;;;;;;;57.75;21.30;;;;;;;;;;5073336;28;20124;-54
2021/11/13 08:20:45;;;;;;;47.67;18.92;;;;;;;;;;5053591;28;20048;-54
2021/11/13 08:23:11;;;;;;;54.90;19.88;;;;;;;;;;5071285;28;20407;-54
2021/11/13 08:25:39;;;;;;;62.75;21.08;;;;;;;;;;5053909;28;20079;-54
2021/11/13 08:28:05;;;;;;;40.15;16.90;;;;;;;;;;5055581;28;20124;-54
2021/11/13 08:30:33;;;;;;;50.92;18.15;;;;;;;;;;5072949;28;20510;-54
2021/11/13 08:33:00;;;;;;;60.22;21.38;;;;;;;;;;5071147;28;20064;-55
2021/11/13 08:35:26;;;;;;;57.88;21.23;;;;;;;;;;5071109;28;20051;-54
2021/11/13 08:37:52;;;;;;;54.78;22.42;;;;;;;;;;5071258;28;20385;-54
2021/11/13 08:40:19;;;;;;;50.65;20.05;;;;;;;;;;5070910;28;20530;-55
2021/11/13 08:42:46;;;;;;;40.78;19.27;;;;;;;;;;5071909;28;20048;-54
2021/11/13 08:45:13;;;;;;;53.22;22.23;;;;;;;;;;5072319;28;20450;-54
2021/11/13 08:47:40;;;;;;;51.70;21.75;;;;;;;;;;5070172;28;20068;-54
2021/11/13 08:50:08;;;;;;;57.38;22.15;;;;;;;;;;5071051;28;20036;-54
2021/11/13 08:52:34;;;;;;;38.22;15.82;;;;;;;;;;5071088;28;20430;-54
2021/11/13 08:55:01;;;;;;;52.13;19.17;;;;;;;;;;5070896;28;20064;-54
2021/11/13 08:57:27;;;;;;;48.30;21.02;;;;;;;;;;5072931;28;20056;-54
2021/11/13 08:59:53;;;;;;;46.78;18.60;;;;;;;;;;5070713;28;20052;-54
2021/11/13 09:02:21;;;;;;;49.47;20.25;;;;;;;;;;5070893;28;20040;-54
2021/11/13 09:04:49;;;;;;;38.15;16.23;;;;;;;;;;5070912;28;20132;-54
2021/11/13 09:07:16;;;;;;;52.15;24.17;;;;;;;;;;5070891;28;20040;-54
2021/11/13 09:09:42;;;;;;;62.33;23.25;;;;;;;;;;5072119;28;20060;-54
2021/11/13 09:12:11;;;;;;;41.72;19.55;;;;;;;;;;5071701;28;20079;-54
2021/11/13 09:14:37;;;;;;;46.83;18.48;;;;;;;;;;5052709;28;20041;-54
2021/11/13 09:17:04;;;;;;;45.28;21.23;;;;;;;;;;5070659;28;20079;-54
2021/11/13 09:19:30;;;;;;;56.03;21.55;;;;;;;;;;5070775;28;20045;-54
2021/11/13 09:21:56;;;;;;;47.83;19.65;;;;;;;;;;5070730;28;20557;-54
2021/11/13 09:24:23;;;;;;;49.63;21.27;;;;;;;;;;5072485;28;20088;-54
2021/11/13 09:26:50;;;;;;;49.13;21.20;;;;;;;;;;5070577;28;20048;-54
2021/11/13 09:29:16;;;;;;;48.10;23.25;;;;;;;;;;5070467;28;20047;-54
2021/11/13 09:31:43;;;;;;;45.05;20.38;;;;;;;;;;5070519;28;20464;-54
2021/11/13 09:34:10;;;;;;;57.20;22.90;;;;;;;;;;5070643;28;20443;-54
2021/11/13 09:36:36;;;;;;;50.28;20.65;;;;;;;;;;5071336;28;20041;-54
2021/11/13 09:39:04;;;;;;;44.05;17.92;;;;;;;;;;5070867;28;20049;-54
2021/11/13 09:41:30;;;;;;;52.10;22.98;;;;;;;;;;5070278;28;20052;-54
2021/11/13 09:43:57;;;;;;;52.63;22.55;;;;;;;;;;5070253;28;20194;-54
2021/11/13 09:46:24;;;;;;;43.60;19.52;;;;;;;;;;5070426;28;20166;-54
2021/11/13 09:48:52;;;;;;;42.85;19.65;;;;;;;;;;5070631;28;20048;-54
2021/11/13 09:51:20;;;;;;;51.97;22.73;;;;;;;;;;5070561;28;20523;-54
2021/11/13 09:53:47;;;;;;;49.03;19.70;;;;;;;;;;5070145;28;20068;-54
2021/11/13 09:56:13;;;;;;;43.85;20.23;;;;;;;;;;5070329;28;20043;-54
2021/11/13 09:58:40;;;;;;;55.20;21.48;;;;;;;;;;5070658;28;20496;-55
2021/11/13 10:01:06;;;;;;;52.85;22.98;;;;;;;;;;5074266;28;20068;-54
2021/11/13 10:03:33;;;;;;;53.97;23.30;;;;;;;;;;5076054;28;20090;-54
2021/11/13 10:06:07;;;;;;;46.75;22.02;;;;;;;;;;5073894;28;20179;-54
2021/11/13 10:08:33;;;;;;;48.55;18.55;;;;;;;;;;5056264;28;20071;-54
2021/11/13 10:11:01;;;;;;;58.05;22.52;;;;;;;;;;5073988;28;20502;-54
2021/11/13 10:13:31;;;;;;;49.38;23.73;;;;;;;;;;5073550;28;20052;-54
2021/11/13 10:15:58;;;;;;;51.63;24.33;;;;;;;;;;5073817;28;20064;-54
2021/11/13 10:18:29;;;;;;;53.75;23.00;;;;;;;;;;5075642;28;20075;-54
2021/11/13 10:20:58;;;;;;;56.60;23.60;;;;;;;;;;5073762;28;20078;-54
2021/11/13 10:23:27;;;;;;;46.47;21.40;;;;;;;;;;5073607;28;20503;-54
2021/11/13 10:25:58;;;;;;;46.53;21.15;;;;;;;;;;5073432;28;20048;-54
2021/11/13 10:28:24;;;;;;;44.00;20.30;;;;;;;;;;5073720;28;20053;-54
2021/11/13 10:31:04;;;;;;;52.25;22.55;;;;;;;;;;5073644;28;20075;-54
2021/11/13 10:33:31;;;;;;;47.83;21.77;;;;;;;;;;5075264;28;20044;-54
2021/11/13 10:35:58;;;;;;;53.90;21.85;;;;;;;;;;5073441;28;20519;-54
2021/11/13 10:38:24;;;;;;;50.75;21.35;;;;;;;;;;5073314;28;20051;-54
2021/11/13 10:40:53;;;;;;;56.03;24.08;;;;;;;;;;5072953;28;20053;-54
2021/11/13 10:43:20;;;;;;;65.47;22.80;;;;;;;;;;5073198;28;20504;-55
2021/11/13 10:46:07;;;;;;;55.53;23.92;;;;;;;;;;5074030;28;20045;-54
2021/11/13 10:48:34;;;;;;;61.67;24.75;;;;;;;;;;5075333;28;20060;-54
2021/11/13 10:51:02;;;;;;;56.72;25.50;;;;;;;;;;5073126;28;20587;-54
2021/11/13 10:53:30;;;;;;;54.30;23.48;;;;;;;;;;5073081;28;20201;-54
2021/11/13 10:56:10;;;;;;;57.90;24.83;;;;;;;;;;5072761;28;20052;-54
2021/11/13 10:58:39;;;;;;;59.35;25.73;;;;;;;;;;5073144;28;20079;-55
2021/11/13 11:01:25;;;;;;;61.95;26.98;;;;;;;;;;5073083;28;20071;-54
2021/11/13 11:03:53;;;;;;;61.03;24.50;;;;;;;;;;5071365;28;20063;-54
2021/11/13 11:06:24;;;;;;;52.15;24.38;;;;;;;;;;5074788;28;20102;-54
2021/11/13 11:08:50;;;;;;;62.22;26.40;;;;;;;;;;5072718;28;20127;-54
2021/11/13 11:11:35;;;;;;;57.58;24.88;;;;;;;;;;5071618;28;20071;-54
2021/11/13 11:14:03;;;;;;;51.85;24.98;;;;;;;;;;5072644;28;20118;-54
2021/11/13 11:16:31;;;;;;;52.38;22.58;;;;;;;;;;5072639;28;20049;-54
2021/11/13 11:18:57;;;;;;;53.13;24.63;;;;;;;;;;5072614;28;20398;-54
2021/11/13 11:21:37;;;;;;;52.75;23.77;;;;;;;;;;5074550;28;20045;-54
2021/11/13 11:24:21;;;;;;;58.88;24.95;;;;;;;;;;5072638;28;20040;-55
2021/11/13 11:26:52;;;;;;;49.53;23.13;;;;;;;;;;5072392;28;20519;-54
2021/11/13 11:29:18;;;;;;;43.50;16.92;;;;;;;;;;5072578;28;20045;-54
2021/11/13 11:31:46;;;;;;;55.10;25.13;;;;;;;;;;5072252;28;20046;-55
2021/11/13 11:34:24;;;;;;;58.47;24.10;;;;;;;;;;5072319;28;20052;-54
2021/11/13 11:36:50;;;;;;;56.45;24.70;;;;;;;;;;5072667;28;20071;-54
2021/11/13 11:39:17;;;;;;;50.45;23.13;;;;;;;;;;5074031;28;20044;-54
2021/11/13 11:41:44;;;;;;;58.20;24.85;;;;;;;;;;5071967;28;20060;-55
2021/11/13 11:44:11;;;;;;;65.55;26.35;;;;;;;;;;5071918;28;20040;-54
2021/11/13 11:46:37;;;;;;;52.85;24.40;;;;;;;;;;5072199;28;20080;-54
2021/11/13 11:49:03;;;;;;;63.15;26.77;;;;;;;;;;5072056;28;22286;-54
2021/11/13 11:51:30;;;;;;;60.25;26.27;;;;;;;;;;5073909;28;20128;-54
2021/11/13 11:54:00;;;;;;;54.13;25.33;;;;;;;;;;5071448;28;20102;-54
2021/11/13 11:56:27;;;;;;;59.15;26.10;;;;;;;;;;5072033;28;20040;-54
2021/11/13 11:58:55;;;;;;;63.20;27.63;;;;;;;;;;5071833;28;20045;-54
2021/11/13 12:01:25;;;;;;;56.28;27.20;;;;;;;;;;5071931;28;20064;-54
2021/11/13 12:03:51;;;;;;;69.05;26.42;;;;;;;;;;5072023;28;20434;-54
2021/11/13 12:06:17;;;;;;;60.20;26.17;;;;;;;;;;5071499;28;20066;-54
2021/11/13 12:09:01;;;;;;;53.17;24.15;;;;;;;;;;5071425;28;20052;-54
2021/11/13 12:11:34;;;;;;;48.67;21.33;;;;;;;;;;5071632;28;20051;-54
2021/11/13 12:14:20;;;;;;;51.85;21.95;;;;;;;;;;5071585;28;20072;-54
2021/11/13 12:16:46;;;;;;;53.60;23.75;;;;;;;;;;5071449;28;20098;-54
2021/11/13 12:19:15;;;;;;;51.22;25.27;;;;;;;;;;5071696;28;20488;-54
2021/11/13 12:21:51;;;;;;;61.03;25.73;;;;;;;;;;5072591;28;20044;-54
2021/11/13 12:24:17;;;;;;;51.92;23.10;;;;;;;;;;5073067;28;20048;-55
2021/11/13 12:26:57;;;;;;;56.13;26.35;;;;;;;;;;5071348;28;20047;-54
2021/11/13 12:29:24;;;;;;;52.42;23.52;;;;;;;;;;5071379;28;20076;-55
2021/11/13 12:31:55;;;;;;;56.20;24.80;;;;;;;;;;5071158;28;20051;-54
2021/11/13 12:34:24;;;;;;;54.22;24.08;;;;;;;;;;5071246;28;20115;-54
2021/11/13 12:37:04;;;;;;;73.55;32.97;;;;;;;;;;5071301;28;20049;-55
2021/11/13 12:39:36;;;;;;;58.05;26.08;;;;;;;;;;5073127;28;20044;-54
2021/11/13 12:42:23;;;;;;;63.78;27.10;;;;;;;;;;5069719;28;20075;-55
2021/11/13 12:44:54;;;;;;;55.20;24.35;;;;;;;;;;5071091;28;20041;-55
2021/11/13 12:47:28;;;;;;;57.35;25.92;;;;;;;;;;5071099;28;20087;-55
2021/11/13 12:49:54;;;;;;;58.30;25.87;;;;;;;;;;5071116;28;20056;-54
2021/11/13 12:52:28;;;;;;;55.90;24.55;;;;;;;;;;5070638;28;20302;-54
2021/11/13 12:55:21;;;;;;;50.88;23.95;;;;;;;;;;5071022;28;20041;-54
2021/11/13 12:57:57;;;;;;;64.57;27.23;;;;;;;;;;5068918;28;20052;-54
2021/11/13 13:00:25;;;;;;;62.15;26.20;;;;;;;;;;5071792;28;20075;-55
2021/11/13 13:02:53;;;;;;;58.80;26.90;;;;;;;;;;5070760;28;20037;-54
2021/11/13 13:05:20;;;;;;;65.32;29.73;;;;;;;;;;5070816;28;20396;-54
2021/11/13 13:07:54;;;;;;;66.20;30.33;;;;;;;;;;5070474;28;20577;-54
2021/11/13 13:10:23;;;;;;;53.90;25.92;;;;;;;;;;5070974;28;20043;-55
2021/11/13 13:12:58;;;;;;;52.47;24.70;;;;;;;;;;5071136;28;20080;-54
2021/11/13 13:15:24;;;;;;;51.25;23.58;;;;;;;;;;5071604;28;20088;-54
2021/11/13 13:17:55;;;;;;;57.65;26.35;;;;;;;;;;5070657;28;20072;-55
2021/11/13 13:20:26;;;;;;;65.13;25.45;;;;;;;;;;5070431;28;20055;-54
2021/11/13 13:22:58;;;;;;;61.08;27.38;;;;;;;;;;5070611;28;20047;-54
2021/11/13 13:25:24;;;;;;;69.38;29.15;;;;;;;;;;5070835;28;20083;-54
2021/11/13 13:27:55;;;;;;;66.57;29.45;;;;;;;;;;5071001;28;20041;-54
2021/11/13 13:30:22;;;;;;;67.38;28.65;;;;;;;;;;5071062;28;20454;-54
2021/11/13 13:32:52;;;;;;;61.40;27.95;;;;;;;;;;5070456;28;20561;-55
2021/11/13 13:35:19;;;;;;;82.20;29.35;;;;;;;;;;5056242;28;20044;-54
2021/11/13 13:37:51;;;;;;;65.20;27.20;;;;;;;;;;5074573;28;20054;-54
2021/11/13 13:40:21;;;;;;;74.10;30.13;;;;;;;;;;5074341;28;20107;-55
2021/11/13 13:42:48;;;;;;;66.43;27.70;;;;;;;;;;5075234;28;20496;-54
2021/11/13 13:45:14;;;;;;;63.33;28.30;;;;;;;;;;5058092;28;20430;-54
2021/11/13 13:47:41;;;;;;;64.20;27.23;;;;;;;;;;5074394;28;20045;-54
2021/11/13 13:50:07;;;;;;;67.22;26.83;;;;;;;;;;5074083;28;20124;-54
2021/11/13 13:52:37;;;;;;;61.42;29.05;;;;;;;;;;5074239;28;20044;-54
2021/11/13 13:55:04;;;;;;;60.55;25.95;;;;;;;;;;5074300;28;20067;-54
2021/11/13 13:57:31;;;;;;;61.08;27.15;;;;;;;;;;5076102;28;20125;-54
2021/11/13 14:00:00;;;;;;;65.25;28.15;;;;;;;;;;5074184;28;20488;-54
2021/11/13 14:02:27;;;;;;;59.60;26.40;;;;;;;;;;5073948;28;20399;-54
2021/11/13 14:04:55;;;;;;;63.72;26.75;;;;;;;;;;5073747;28;20044;-54
2021/11/13 14:07:24;;;;;;;58.80;25.67;;;;;;;;;;5073999;28;20529;-54
2021/11/13 14:09:57;;;;;;;65.07;26.65;;;;;;;;;;5074272;28;20040;-54
2021/11/13 14:12:24;;;;;;;67.63;28.35;;;;;;;;;;5074489;28;20048;-54
2021/11/13 14:14:50;;;;;;;72.38;30.38;;;;;;;;;;5073769;28;20044;-54
2021/11/13 14:17:17;;;;;;;68.20;26.20;;;;;;;;;;5073784;28;20499;-54
2021/11/13 14:19:43;;;;;;;56.75;26.23;;;;;;;;;;5073562;28;20048;-54
2021/11/13 14:22:10;;;;;;;62.65;27.92;;;;;;;;;;5073740;28;20048;-54